AYPY/POM METAR and TAF weather

Enter ICAO airport designator
Station Type Date Time Source
AYPY METAR 2018/09/21 22:00 UTC NOAA

AYPY 212200Z 14011KT 9999 FEW006 SCT010 BKN025 25/23 Q1014 RMK


Station Type Date Time Source
AYPY Decoded METAR 2018/09/21 22:00 UTC NOAA

Moresby, Papua New Guinea (AYPY) 09-26S 147-13E 49M
Sep 21, 2018 - 06:00 PM EDT / 2018.09.21 2200 UTC
Wind: from the SE (140 degrees) at 13 MPH (11 KT):0
Visibility: greater than 7 mile(s):0
Sky conditions: mostly cloudy
Temperature: 77 F (25 C)
Dew Point: 73 F (23 C)
Relative Humidity: 88%
Pressure (altimeter): 29.94 in. Hg (1014 hPa)
ob: AYPY 212200Z 14011KT 9999 FEW006 SCT010 BKN025 25/23 Q1014 RMK
cycle: 22

Station Type Date Time Source
AYPY TAF 2018/09/21 20:30 UTC NOAA

TAF TAF
AMD AYPY 2120/2218 15015KT 9999 -RADZ BKN015 BKN030 INTER 2120/2212 4000 +RADZ BKN008


Example: see airport list